Tiempo atmosférico en la estación meteorológica de Zumaia, Gipuzkoa (28 m.)



Fecha
DESCASC
Temp. máxima en grados centígrados (hora)
DESCASC
Temp. mínima en grados centígrados (hora)
DESCASC
Temp. media en grados centígrados
DESCASC
Racha de viento máxima en m/sg (hora)
DESCASC
Velocidad máxima media en intervalos de 10 minutos(hora)
DESCASC
Precipitaciones diarias en mm
DESCASC
Precipitaciones de 00:00 a 06:00 en mm
DESCASC
Precipitaciones de 06:00 a 12:00 en mm
DESCASC
Precipitaciones de 12:00 a 18:00 en mm
DESCASC
Precipitaciones de 18:00 a 24:00 en mm
DESCASC
05-04-2020 23.5 (15:50) 14.7 (07:30) 19.1 21.11 (13:30) 12.22 (13:30) 0 0 0 0 0
04-04-2020 24.8 (17:40) 4.6 (07:00) 14.7 18.61 (23:40) 11.39 (22:50) 0 0 0 0 0
03-04-2020 15.5 (14:20) 5 (07:20) 10.3 8.06 (16:30) 5 (15:10) 0 0 0 0 0
02-04-2020 17.8 (15:30) 10 (00:00) 13.9 8.33 (23:30) 6.11 (23:30) 0.1 0 0 0.1 0
01-04-2020 16 (17:30) 7.2 (00:00) 11.6 8.61 (17:00) 5.28 (19:30) 0 0 0 0 0
31-03-2020 8.7 (17:30) 4 (00:00) 6.3 4.72 (07:20) 3.33 (05:20) 5.4 0 1.1 2.9 1.4
30-03-2020 9.4 (13:40) 3.8 (00:00) 6.6 18.89 (08:20) 12.22 (07:00) 6.3 1.2 4.3 0.8 0
29-03-2020 15.6 (12:50) 5.2 (00:00) 10.4 13.89 (21:10) 10.28 (22:00) 0 0 0 0 0
28-03-2020 16.9 (16:00) 5.1 (00:00) 11 5.28 (07:50) 4.44 (07:20) 0 0 0 0 0
27-03-2020 14.7 (13:50) 3.5 (00:00) 9.1 6.39 (18:10) 4.17 (14:30) 0 0 0 0 0
26-03-2020 14.2 (14:40) 6.3 (00:00) 10.3 15.28 (07:40) 12.5 (07:40) 0 0 0 0 0
25-03-2020 16.7 (15:30) 7.5 (00:00) 12.1 12.5 (19:30) 7.78 (19:10) 0 0 0 0 0
24-03-2020 17 (17:10) 9 (00:00) 13 6.94 (13:00) 5.83 (13:00) 0.1 0.1 0 0 0
23-03-2020 16.7 (14:20) 9.6 (00:00) 13.2 5.83 (16:00) 4.17 (16:40) 0 0 0 0 0
22-03-2020 17 (13:50) 8 (07:20) 12.5 6.67 (23:00) 4.72 (14:00) 0 0 0 0 0
21-03-2020 21.8 (12:50) 11.1 (00:00) 16.4 14.17 (04:00) 8.33 (04:20) 0 0 0 0 0
20-03-2020 21.7 (14:20) 14.2 (00:00) 18 11.39 (02:10) 6.67 (02:10) 0 0 0 0 0
19-03-2020 18.7 (17:30) 11 (00:00) 14.9 7.78 (17:20) 3.33 (11:30) 0.1 0 0.1 0 0
18-03-2020 16.2 (16:20) 9 (00:00) 12.6 4.72 (11:20) 3.89 (06:00) 0 0 0 0 0
17-03-2020 13.9 (15:50) 10.8 (00:00) 12.3 7.22 (00:10) 4.72 (00:10) 1.2 1.1 0.1 0 0
16-03-2020 11.7 (23:50) 8.5 (00:00) 10.1 17.22 (08:50) 13.61 (08:50) 33.4 11.8 17.4 3.6 0.6
15-03-2020 20.6 (11:20) 5.4 (00:00) 13 15.56 (07:30) 9.72 (10:40) 8 0 0 0 8
14-03-2020 15.3 (15:20) 4.8 (00:00) 10.1 5.56 (16:20) 3.89 (16:30) 0 0 0 0 0
13-03-2020 14.6 (16:40) 7.3 (23:20) 11 8.33 (00:10) 6.39 (00:10) 2.5 1.5 1 0 0
12-03-2020 14.9 (14:20) 9.8 (00:00) 12.3 10.28 (19:40) 7.22 (19:50) 2.1 0 0 0 2.1
11-03-2020 16.3 (15:30) 7 (00:00) 11.6 6.39 (12:40) 4.72 (13:40) 0 0 0 0 0

Gráficas

Temp. máximas Temp. mínimas Temp. medias Precipitaciones Rachas de viento máximas Velocidades máximas media en intervalos de 10 minutos

Datos horarios

Fecha y hora oficial Temperatura (ºC) Velocidad del viento (km/h) Dirección del viento Racha (km/h) Dirección de racha Precipitación (mm) Presión (hPa) Tendencia (hPa) Humedad (%)
2020-04-09 23:00:00 17.5 5 Nordeste 26 Sudoeste 0 -- -- 69
2020-04-09 22:00:00 16.8 5 Oeste 8 Oeste 0 -- -- 71
2020-04-09 21:00:00 18.4 0 Calma 20 Sudeste 0 -- -- 61
2020-04-09 20:00:00 21 17 Sur 30 Sudeste 0 -- -- 52
2020-04-09 19:00:00 20.6 23 Sudeste 31 Sur 0 -- -- 54
2020-04-09 18:00:00 22.2 20 Sudeste 30 Sudeste 0 -- -- 49
2020-04-09 17:00:00 23.4 12 Sudeste 23 Este 0 -- -- 49
2020-04-09 16:00:00 24.7 8 Sudeste 28 Sudeste 0 -- -- 48
2020-04-09 15:00:00 23.9 20 Sudeste 30 Sudeste 0 -- -- 47
2020-04-09 14:00:00 23.3 9 Este 30 Este 0 -- -- 47
2020-04-09 13:00:00 21.9 11 Sudeste 26 Este 0 -- -- 52
2020-04-09 12:00:00 21.5 9 Este 17 Este 0 -- -- 56
2020-04-09 11:00:00 20.7 0 Calma 18 Sudoeste 0 -- -- 52
2020-04-09 10:00:00 19.9 12 Sudoeste 27 Sudoeste 0 -- -- 57
2020-04-09 09:00:00 16.9 17 Sudoeste 28 Sudoeste 0 -- -- 65
2020-04-09 08:00:00 15.3 16 Sudoeste 29 Sudoeste 0 -- -- 71
2020-04-09 07:00:00 13.6 7 Sudoeste 14 Sudoeste 0 -- -- 85
2020-04-09 06:00:00 13.5 0 Calma 10 Norte 0 -- -- 93
2020-04-09 05:00:00 13.5 4 Nordeste 7 Nordeste 0 -- -- 94
2020-04-09 04:00:00 12.7 0 Calma 10 Sudoeste 0 -- -- 95
2020-04-09 03:00:00 11.8 8 Oeste 11 Oeste 0 -- -- 95
2020-04-09 02:00:00 12 9 Oeste 13 Oeste 0 -- -- 95
2020-04-09 01:00:00 12.5 8 Oeste 11 Oeste 0 -- -- 94
2020-04-09 00:00:00 13 8 Oeste 12 Oeste 0 -- -- 92
2020-04-08 23:00:00 13.7 0 Calma 9 Sudoeste 0 -- -- 91
2020-04-08 22:00:00 14.3 6 Oeste 7 Sudoeste 0 -- -- 88
2020-04-08 21:00:00 15.4 4 Norte 10 Norte 0 -- -- 85
2020-04-08 20:00:00 17.6 6 Norte 13 Norte 0 -- -- 77
2020-04-08 19:00:00 18 9 Norte 16 Norte 0 -- -- 75
2020-04-08 18:00:00 19.7 10 Norte 14 Norte 0 -- -- 73
2020-04-08 17:00:00 18.9 10 Norte 17 Norte 0 -- -- 71
2020-04-08 16:00:00 17.4 8 Nordeste 17 Norte 0 -- -- 74
2020-04-08 15:00:00 17.1 10 Norte 19 Norte 0 -- -- 77
2020-04-08 14:00:00 16.9 14 Norte 28 Este 0 -- -- 77
2020-04-08 13:00:00 17.1 16 Este 26 Este 0 -- -- 71
2020-04-08 12:00:00 17 14 Este 21 Este 0 -- -- 80
2020-04-08 11:00:00 14.9 10 Este 18 Este 0 -- -- 97
2020-04-08 10:00:00 13.7 5 Nordeste 12 Nordeste 0 -- -- 97
2020-04-08 09:00:00 13.4 8 Nordeste 13 Norte 0 -- -- 97
2020-04-08 08:00:00 13.1 3 Este 6 Oeste 0 -- -- 97
2020-04-08 07:00:00 12.5 2 Oeste 6 Oeste 0 -- -- 96
2020-04-08 06:00:00 12.9 0 Calma 9 Este 0 -- -- 96
2020-04-08 05:00:00 13.5 4 Este 15 Norte 0 -- -- 95
2020-04-08 04:00:00 13.9 10 Norte 22 Norte 0 -- -- 91
2020-04-08 03:00:00 15.4 2 Oeste 28 Oeste 0 -- -- 76
2020-04-08 02:00:00 16.9 13 Sudoeste 41 Oeste 0 -- -- 64
2020-04-08 01:00:00 17.2 18 Sudoeste 43 Oeste 0 -- -- 65
2020-04-08 00:00:00 17.2 23 Sudoeste 43 Oeste 0 -- -- 65
2020-04-07 23:00:00 16.8 20 Sudoeste 35 Sudoeste 0 -- -- 65
2020-04-07 22:00:00 17 22 Sudoeste 37 Sudoeste 0 -- -- 64
2020-04-07 21:00:00 17 22 Sudoeste 41 Sudoeste 0 -- -- 62
2020-04-07 20:00:00 18.9 22 Sudoeste 40 Sudoeste 0 -- -- 56
2020-04-07 19:00:00 20.5 16 Sudoeste 35 Oeste 0 -- -- 53
2020-04-07 18:00:00 22 18 Sudoeste 34 Oeste 0 -- -- 50
2020-04-07 17:00:00 22.2 22 Sudoeste 35 Oeste 0 -- -- 49
2020-04-07 16:00:00 22.7 14 Sudoeste 33 Sudoeste 0 -- -- 50
2020-04-07 15:00:00 22 15 Sudoeste 38 Oeste 0 -- -- 55
2020-04-07 14:00:00 18.8 18 Sudoeste 37 Sudoeste 0 -- -- 64
2020-04-07 13:00:00 15.5 18 Sudoeste 38 Sudoeste 0 -- -- 79
2020-04-07 12:00:00 14.1 21 Sudoeste 40 Sudoeste 0.3 -- -- 88
2020-04-07 11:00:00 13.7 17 Sudoeste 31 Sudoeste 0 -- -- 98
2020-04-07 10:00:00 12.8 0 Calma 3 Norte 0.2 -- -- 98
2020-04-07 09:00:00 12.4 0 Calma 10 Sudoeste 0 -- -- 98
2020-04-07 08:00:00 12.1 0 Calma 9 Sudoeste 0 -- -- 98
2020-04-07 07:00:00 12.2 2 Sudoeste 5 Sudoeste 0 -- -- 98
2020-04-07 06:00:00 12.2 0 Calma 7 Sudoeste 0 -- -- 98
2020-04-07 05:00:00 12.2 0 Calma -- -- 0 -- -- 98
2020-04-07 04:00:00 12.1 0 Calma -- -- 0 -- -- 98
2020-04-07 03:00:00 12.1 0 Calma 8 Sudeste 0 -- -- 98
2020-04-07 02:00:00 12.1 0 Calma -- -- 0 -- -- 98
2020-04-07 01:00:00 12 0 Calma -- -- 0 -- -- 98
2020-04-07 00:00:00 12.2 0 Calma 5 Sudoeste 0.1 -- -- 98
2020-04-06 23:00:00 12.3 0 Calma 8 Noroeste 0.2 -- -- 98
2020-04-06 22:00:00 12.2 0 Calma 7 Noroeste 0.8 -- -- 98
2020-04-06 21:00:00 12.4 2 Norte 7 Norte 1.4 -- -- 98
2020-04-06 20:00:00 12.6 4 Norte 19 Norte 1.4 -- -- 98
2020-04-06 19:00:00 12.7 8 Norte 20 Norte 0.2 -- -- 96
2020-04-06 18:00:00 13.2 10 Norte 18 Norte 0 -- -- 94
2020-04-06 17:00:00 13.5 13 Norte 17 Norte 0 -- -- 94
2020-04-06 16:00:00 14.1 15 Nordeste 29 Norte 0 -- -- 91
2020-04-06 15:00:00 14.5 8 Norte 18 Norte 0 -- -- 86
2020-04-06 14:00:00 15 13 Norte 18 Norte 0 -- -- 86
2020-04-06 13:00:00 15.2 8 Norte 15 Norte 0 -- -- 83
2020-04-06 12:00:00 16.2 6 Norte 10 Norte 0 -- -- 85
2020-04-06 11:00:00 14.6 8 Norte 19 Norte 0 -- -- 86
2020-04-06 10:00:00 15 8 Norte 20 Norte 0 -- -- 75
2020-04-06 09:00:00 15.6 0 Calma 14 Oeste 0 -- -- 60
2020-04-06 08:00:00 15.9 0 Calma 36 Oeste 0 -- -- 57
2020-04-06 07:00:00 16.1 17 Sudoeste 43 Sudoeste 0 -- -- 57
2020-04-06 06:00:00 16.4 27 Oeste 47 Sudoeste 0 -- -- 57
2020-04-06 05:00:00 16.3 25 Sudoeste 43 Sudoeste 0 -- -- 59
2020-04-06 04:00:00 16.3 24 Sudoeste 45 Sudoeste 0 -- -- 61
2020-04-06 03:00:00 17.3 19 Oeste 35 Oeste 0 -- -- 57
2020-04-06 02:00:00 17 20 Sudoeste 48 Sudoeste 0 -- -- 59
2020-04-06 01:00:00 16.9 24 Sudoeste 42 Oeste 0 -- -- 58
2020-04-06 00:00:00 18.4 25 Sudoeste 48 Oeste 0 -- -- 50
2020-04-05 23:00:00 18.8 26 Oeste 48 Sudoeste 0 -- -- 48
2020-04-05 22:00:00 18.7 20 Sudoeste 37 Sudoeste 0 -- -- 48
2020-04-05 21:00:00 19.1 17 Sudoeste 36 Sudoeste 0 -- -- 48
2020-04-05 20:00:00 20.6 19 Sudoeste 39 Sudoeste 0 -- -- 45
2020-04-05 19:00:00 20.8 25 Sudoeste 54 Sudoeste 0 -- -- 45
2020-04-05 18:00:00 21.6 26 Sudoeste 50 Sudoeste 0 -- -- 44
2020-04-05 17:00:00 22.3 27 Oeste 51 Oeste 0 -- -- 43
2020-04-05 16:00:00 23.3 22 Sudoeste 57 Sudoeste 0 -- -- 41
2020-04-05 15:00:00 22.4 40 Sudoeste 66 Sudoeste 0 -- -- 41
2020-04-05 14:00:00 22.5 33 Sudoeste 76 Sudoeste 0 -- -- 42
2020-04-05 13:00:00 19 36 Sudoeste 66 Sudoeste 0 -- -- 47
2020-04-05 12:00:00 17.8 27 Sudoeste 57 Sudoeste 0 -- -- 48
2020-04-05 11:00:00 16.2 24 Sudoeste 51 Sudoeste 0 -- -- 49
2020-04-05 10:00:00 15.5 32 Oeste 60 Sudoeste 0 -- -- 49
2020-04-05 09:00:00 15 34 Sudoeste 62 Sudoeste 0 -- -- 50
2020-04-05 08:00:00 14.7 33 Sudoeste 55 Sudoeste 0 -- -- 50
2020-04-05 07:00:00 15.2 26 Sudoeste 55 Oeste 0 -- -- 49
2020-04-05 06:00:00 15 39 Sudoeste 70 Sudoeste 0 -- -- 50
2020-04-05 05:00:00 15.4 26 Sudoeste 58 Sudoeste 0 -- -- 48
2020-04-05 04:00:00 15.9 30 Sudoeste 48 Sudoeste 0 -- -- 46
2020-04-05 03:00:00 16.5 23 Sudoeste 58 Sudoeste 0 -- -- 44
2020-04-05 02:00:00 17.2 30 Sudoeste 55 Sudoeste 0 -- -- 43
2020-04-05 01:00:00 17.5 27 Sudoeste 48 Sudoeste 0 -- -- 44
2020-04-05 00:00:00 18.2 30 Sudoeste 67 Sudoeste 0 -- -- 41
2020-04-04 23:00:00 19.1 38 Sudoeste 65 Sudoeste 0 -- -- 41
2020-04-04 22:00:00 19 31 Sudoeste 66 Sudoeste 0 -- -- 40
2020-04-04 21:00:00 18.7 19 Sudoeste 34 Sudoeste 0 -- -- 38
2020-04-04 20:00:00 20.5 13 Sudoeste 34 Sur 0 -- -- 33
2020-04-04 19:00:00 22.8 16 Sudoeste 33 Sudoeste 0 -- -- 31
2020-04-04 18:00:00 24.4 15 Sudoeste 33 Sudoeste 0 -- -- 29
2020-04-04 17:00:00 24.3 20 Sudoeste 36 Sudoeste 0 -- -- 28
2020-04-04 16:00:00 23.7 24 Sudoeste 47 Oeste 0 -- -- 29
2020-04-04 15:00:00 23.4 22 Sudoeste 43 Sur 0 -- -- 32
2020-04-04 14:00:00 22.2 26 Sudoeste 46 Sudoeste 0 -- -- 36
2020-04-04 13:00:00 21.3 23 Sudoeste 44 Sudoeste 0 -- -- 38
2020-04-04 12:00:00 20.3 24 Sudoeste 41 Sudoeste 0 -- -- 41
2020-04-04 11:00:00 18.6 11 Sudoeste 32 Sudoeste 0 -- -- 44
2020-04-04 10:00:00 15.9 17 Sudoeste 40 Sudoeste 0 -- -- 46
2020-04-04 09:00:00 12.5 25 Sudoeste 42 Sudoeste 0 -- -- 58
2020-04-04 08:00:00 7.6 8 Oeste 16 Oeste 0 -- -- 82
2020-04-04 07:00:00 4.7 13 Oeste 18 Oeste 0 -- -- 94
2020-04-04 06:00:00 5 9 Oeste 16 Sudoeste 0 -- -- 92
2020-04-04 05:00:00 5.1 13 Sudoeste 18 Sudoeste 0 -- -- 92
2020-04-04 04:00:00 5.4 13 Sudoeste 17 Sudoeste 0 -- -- 91
2020-04-04 03:00:00 5.7 15 Sudoeste 19 Sudoeste 0 -- -- 91
2020-04-04 02:00:00 5.8 14 Sudoeste 17 Sudoeste 0 -- -- 91
2020-04-04 01:00:00 5.9 13 Sudoeste 16 Oeste 0 -- -- 90
2020-04-04 00:00:00 6.5 13 Sudoeste 16 Sudoeste 0 -- -- 87
2020-04-03 23:00:00 7.5 10 Sudoeste 13 Sudoeste 0 -- -- 80
2020-04-03 22:00:00 8.8 7 Sudoeste 12 Sur 0 -- -- 71
2020-04-03 21:00:00 10.2 6 Sur 14 Sudeste 0 -- -- 64
2020-04-03 20:00:00 12.2 9 Sudeste 20 Este 0 -- -- 58
2020-04-03 19:00:00 12.7 14 Este 25 Este 0 -- -- 56
2020-04-03 18:00:00 12.9 18 Este 26 Este 0 -- -- 57
2020-04-03 17:00:00 13.3 17 Este 29 Este 0 -- -- 58
2020-04-03 16:00:00 14 15 Este 26 Este 0 -- -- 57
2020-04-03 15:00:00 14.5 14 Este 23 Este 0 -- -- 58
2020-04-03 14:00:00 15 8 Este 14 Este 0 -- -- 58
2020-04-03 13:00:00 14.9 12 Norte 16 Norte 0 -- -- 60
2020-04-03 12:00:00 13.3 7 Norte 15 Norte 0 -- -- 63
2020-04-03 11:00:00 12.4 0 Calma 12 Sudoeste 0 -- -- 67
2020-04-03 10:00:00 9.9 9 Oeste 15 Oeste 0 -- -- 88
2020-04-03 09:00:00 5.9 13 Sudoeste 17 Oeste 0 -- -- 95
2020-04-03 08:00:00 5.2 13 Sudoeste 16 Sudoeste 0 -- -- 95
2020-04-03 07:00:00 5.1 13 Sudoeste 17 Sudoeste 0 -- -- 94
2020-04-03 06:00:00 5.6 12 Sudoeste 15 Oeste 0 -- -- 93
2020-04-03 05:00:00 6.1 10 Oeste 13 Oeste 0 -- -- 92
2020-04-03 04:00:00 6.4 10 Sudoeste 13 Sudoeste 0 -- -- 91
2020-04-03 03:00:00 7 10 Oeste 12 Oeste 0 -- -- 87
2020-04-03 02:00:00 7.8 9 Oeste 13 Oeste 0 -- -- 81
2020-04-03 01:00:00 9.7 5 Oeste 27 Norte 0 -- -- 69
2020-04-03 00:00:00 10.6 18 Norte 30 Norte 0 -- -- 65
2020-04-02 23:00:00 10.7 18 Norte 27 Norte 0 -- -- 65
2020-04-02 22:00:00 11 17 Norte 26 Norte 0 -- -- 68
2020-04-02 21:00:00 11 15 Norte 25 Norte 0 -- -- 72
2020-04-02 20:00:00 12.1 20 Norte 27 Norte 0 -- -- 72
2020-04-02 19:00:00 13.6 19 Norte 28 Norte 0 -- -- 70
2020-04-02 18:00:00 13.5 18 Norte 25 Norte 0 -- -- 73
2020-04-02 17:00:00 15.4 15 Norte 23 Norte 0 -- -- 71
2020-04-02 16:00:00 15.9 16 Norte 22 Norte 0 -- -- 70
2020-04-02 15:00:00 17 12 Norte 22 Norte 0 -- -- 72
2020-04-02 14:00:00 14.5 11 Norte 18 Norte 0.1 -- -- 77
2020-04-02 13:00:00 13.5 10 Norte 15 Nordeste 0 -- -- 81
2020-04-02 12:00:00 13.2 8 Nordeste 13 Este 0 -- -- 94
2020-04-02 11:00:00 12.1 9 Nordeste 19 Noroeste 0 -- -- 96
2020-04-02 10:00:00 11.9 9 Norte 18 Norte 0 -- -- 96
2020-04-02 09:00:00 10.3 6 Sudoeste 11 Sudoeste 0 -- -- 95
2020-04-02 08:00:00 10 8 Sudoeste 11 Oeste 0 -- -- 95
2020-04-02 07:00:00 10.1 9 Sudoeste 11 Sudoeste 0 -- -- 94
2020-04-02 06:00:00 10.3 6 Sudoeste 9 Oeste 0 -- -- 93
2020-04-02 05:00:00 10.7 8 Oeste 10 Oeste 0 -- -- 92
2020-04-02 04:00:00 10.8 8 Sudoeste 10 Sudoeste 0 -- -- 91
2020-04-02 03:00:00 11 6 Sudoeste 9 Oeste 0 -- -- 90
2020-04-02 02:00:00 11.4 6 Sudoeste 10 Sudoeste 0 -- -- 88
2020-04-02 01:00:00 11.9 5 Sudoeste 10 Oeste 0 -- -- 87
2020-04-02 00:00:00 11.9 5 Oeste 11 Sudoeste 0 -- -- 88
2020-04-01 23:00:00 12.5 6 Sudoeste 9 Sudoeste 0 -- -- 84
2020-04-01 22:00:00 12.8 7 Sudeste 20 Sur 0 -- -- 80
2020-04-01 21:00:00 12.9 14 Sur 23 Sur 0 -- -- 79
2020-04-01 20:00:00 13.4 15 Sudeste 28 Sudeste 0 -- -- 76
2020-04-01 19:00:00 14.1 15 Sudeste 23 Sudeste 0 -- -- 72
2020-04-01 18:00:00 15.4 9 Este 22 Sur 0 -- -- 71
2020-04-01 17:00:00 14.7 16 Sur 31 Sudoeste 0 -- -- 72
2020-04-01 16:00:00 14.6 0 Calma 8 Norte 0 -- -- 72
2020-04-01 15:00:00 13.5 5 Nordeste 10 Norte 0 -- -- 81
2020-04-01 14:00:00 13.9 0 Calma 11 Norte 0 -- -- 81
2020-04-01 13:00:00 13.5 8 Norte 15 Este 0 -- -- 87
2020-04-01 12:00:00 12.4 9 Este 13 Este 0 -- -- 98
2020-04-01 11:00:00 11.1 2 Sur 13 Sudoeste 0 -- -- 99
2020-04-01 10:00:00 8.9 11 Sudoeste 15 Sudoeste 0 -- -- 99
2020-04-01 09:00:00 7.7 9 Oeste 14 Sudoeste 0 -- -- 99
2020-04-01 08:00:00 7.3 9 Oeste 13 Oeste 0 -- -- 99
2020-04-01 07:00:00 7.4 11 Sudoeste 14 Oeste 0 -- -- 99
2020-04-01 06:00:00 7.4 8 Sudoeste 16 Sudoeste 0 -- -- 99
2020-04-01 05:00:00 7.4 10 Sudoeste 14 Sudoeste 0 -- -- 99
2020-04-01 04:00:00 7.5 9 Sudoeste 15 Sudoeste 0 -- -- 99
2020-04-01 03:00:00 7.6 10 Sudoeste 16 Sudoeste 0 -- -- 99
2020-04-01 02:00:00 7.5 8 Sudoeste 12 Sudoeste 0 -- -- 99
2020-04-01 01:00:00 7.7 7 Sudoeste 11 Sudoeste 0 -- -- 99
2020-04-01 00:00:00 7.9 8 Sudoeste 13 Sudoeste 0.2 -- -- 99
2020-03-31 23:00:00 7.7 9 Sudoeste 12 Sudoeste 0 -- -- 98
2020-03-31 22:00:00 8 0 Calma 6 Sudoeste 0.1 -- -- 98
2020-03-31 21:00:00 8.1 5 Sudoeste 10 Sudoeste 0.1 -- -- 97
2020-03-31 20:00:00 8.3 8 Sudoeste 13 Sudoeste 0.4 -- -- 95
2020-03-31 19:00:00 8.6 0 Calma 6 Sudoeste 0.6 -- -- 94
2020-03-31 18:00:00 8.5 0 Calma 11 Sur 0 -- -- 94
2020-03-31 17:00:00 8.4 6 Sudeste 13 Sudeste 0.3 -- -- 94
2020-03-31 16:00:00 8.1 3 Sur 13 Sudeste 0.7 -- -- 94
2020-03-31 15:00:00 7.8 7 Sudeste 14 Este 0.4 -- -- 94
2020-03-31 14:00:00 7.3 2 Sudeste 11 Sudeste 0.5 -- -- 97
2020-03-31 13:00:00 7 4 Sudoeste 11 Sudoeste 1 -- -- 97
2020-03-31 12:00:00 5.6 6 Sudoeste 12 Sudoeste 0 -- -- 97
2020-03-31 11:00:00 5.1 8 Sudoeste 12 Sudoeste 0.2 -- -- 97
2020-03-31 10:00:00 4.8 8 Sudoeste 12 Sudoeste 0 -- -- 96
2020-03-31 09:00:00 4.3 6 Sudoeste 14 Sur 0.1 -- -- 96
2020-03-31 08:00:00 4.2 7 Sudoeste 17 Sur 0.5 -- -- 95
2020-03-31 07:00:00 4.2 8 Sudoeste 12 Sudoeste 0.3 -- -- 95
2020-03-31 06:00:00 4.2 9 Sudoeste 15 Sudoeste 0 -- -- 94
2020-03-31 05:00:00 4.1 9 Sudoeste 13 Sudoeste 0 -- -- 94
2020-03-31 04:00:00 4.3 8 Sudoeste 13 Sudoeste 0 -- -- 94
2020-03-31 03:00:00 4.3 9 Sudoeste 13 Sudoeste 0 -- -- 93
2020-03-31 02:00:00 4.6 7 Sudoeste 13 Sudoeste 0 -- -- 93
2020-03-31 01:00:00 4.9 9 Sudoeste 12 Sudoeste 0 -- -- 93
2020-03-31 00:00:00 4.9 11 Sudoeste 16 Sudoeste 0 -- -- 92
2020-03-30 23:00:00 4.9 9 Sudoeste 15 Sudoeste 0 -- -- 92
2020-03-30 22:00:00 5.1 10 Sudoeste 14 Sudoeste 0 -- -- 91
2020-03-30 21:00:00 5.2 11 Sudoeste 16 Sudoeste 0 -- -- 89
2020-03-30 20:00:00 6 5 Sudoeste 12 Oeste 0 -- -- 88
2020-03-30 19:00:00 6.3 2 Oeste 16 Norte 0 -- -- 87
2020-03-30 18:00:00 6.7 7 Norte 16 Norte 0 -- -- 84
2020-03-30 17:00:00 8.1 8 Norte 30 Norte 0.5 -- -- 87
2020-03-30 16:00:00 7.6 10 Norte 19 Norte 0 -- -- 77
2020-03-30 15:00:00 8.3 3 Norte 10 Norte 0 -- -- 75
2020-03-30 14:00:00 7.4 0 Calma 12 Oeste 0 -- -- 80
2020-03-30 13:00:00 6.4 9 Sudoeste 17 Sudoeste 0.3 -- -- 94
2020-03-30 12:00:00 3.8 6 Oeste 48 Norte 4.2 -- -- 91
2020-03-30 11:00:00 6.9 0 Calma 22 Este 0 -- -- 76
2020-03-30 10:00:00 5.7 21 Este 49 Este 0.1 -- -- 85
2020-03-30 09:00:00 5.6 13 Este 68 Este 0 -- -- 90
2020-03-30 08:00:00 5.8 28 Este 53 Este 0 -- -- 81
2020-03-30 07:00:00 6.2 44 Nordeste 63 Este 0 -- -- 80
2020-03-30 06:00:00 6.7 37 Este 50 Este 0.6 -- -- 82
2020-03-30 05:00:00 5.3 7 Sudoeste 12 Sudoeste 0.1 -- -- 92
2020-03-30 04:00:00 5.3 8 Sudoeste 14 Sudoeste 0 -- -- 89
2020-03-30 03:00:00 5.8 10 Sudoeste 30 Sur 0 -- -- 87
2020-03-30 02:00:00 6 14 Sudeste 33 Este 0.2 -- -- 87
2020-03-30 01:00:00 6.9 18 Este 51 Este 0.3 -- -- 87
2020-03-30 00:00:00 7.3 15 Sudeste 50 Este 0 -- -- 84
2020-03-29 23:00:00 8.3 36 Este 49 Este 0 -- -- 78
2020-03-29 22:00:00 9.1 37 Este 50 Este 0 -- -- 78
2020-03-29 21:00:00 9.7 35 Nordeste 48 Nordeste 0 -- -- 78
2020-03-29 20:00:00 10.4 24 Nordeste 41 Norte 0 -- -- 80
2020-03-29 19:00:00 10.6 28 Nordeste 35 Nordeste 0 -- -- 82
2020-03-29 18:00:00 10.7 22 Nordeste 32 Norte 0 -- -- 84
2020-03-29 17:00:00 10.7 21 Nordeste 33 Nordeste 0 -- -- 84
2020-03-29 16:00:00 10.8 20 Nordeste 35 Este 0 -- -- 89
2020-03-29 15:00:00 11.4 21 Nordeste 39 Este 0 -- -- 84
2020-03-29 14:00:00 14 18 Norte 29 Norte 0 -- -- 68
2020-03-29 13:00:00 14.5 15 Norte 27 Norte 0 -- -- 65
2020-03-29 12:00:00 15 17 Norte 24 Norte 0 -- -- 72
2020-03-29 11:00:00 12.9 3 Norte 13 Sudoeste 0 -- -- 74
2020-03-29 10:00:00 9.4 12 Sudoeste 17 Sudoeste 0 -- -- 87
2020-03-29 09:00:00 6.1 14 Sudoeste 17 Oeste 0 -- -- 94
2020-03-29 08:00:00 5.3 14 Sudoeste 18 Oeste 0 -- -- 93
2020-03-29 07:00:00 5.3 14 Sudoeste 18 Sudoeste 0 -- -- 93
2020-03-29 06:00:00 5.4 15 Sudoeste 18 Sudoeste 0 -- -- 92
2020-03-29 05:00:00 5.5 15 Sudoeste 18 Sudoeste 0 -- -- 92
2020-03-29 03:00:00 6.1 14 Sudoeste 17 Sudoeste 0 -- -- 91
2020-03-29 01:00:00 6.6 14 Sudoeste 17 Sudoeste 0 -- -- 91
2020-03-29 00:00:00 7 13 Sudoeste 16 Sudoeste 0 -- -- 89
2020-03-28 23:00:00 7.7 14 Sudoeste 17 Sudoeste 0 -- -- 87
2020-03-28 22:00:00 8.6 11 Sudoeste 13 Sudoeste 0 -- -- 84
2020-03-28 21:00:00 9.7 10 Sudoeste 12 Sudoeste 0 -- -- 78
2020-03-28 20:00:00 11.4 0 Calma 7 Este 0 -- -- 70
2020-03-28 19:00:00 13.6 2 Este 11 Este 0 -- -- 63
2020-03-28 18:00:00 14.7 8 Este 15 Este 0 -- -- 63
2020-03-28 17:00:00 14.9 8 Nordeste 12 Norte 0 -- -- 67
2020-03-28 16:00:00 16.9 5 Nordeste 10 Nordeste 0 -- -- 61
2020-03-28 15:00:00 15.8 7 Nordeste 16 Norte 0 -- -- 64
2020-03-28 14:00:00 14.5 11 Nordeste 15 Norte 0 -- -- 70
2020-03-28 13:00:00 15 7 Nordeste 12 Este 0 -- -- 68
2020-03-28 12:00:00 14.3 7 Nordeste 10 Nordeste 0 -- -- 69
2020-03-28 11:00:00 14.5 6 Norte 11 Norte 0 -- -- 64
2020-03-28 10:00:00 13.4 4 Sudoeste 13 Oeste 0 -- -- 69
2020-03-28 09:00:00 9.9 11 Sudoeste 18 Sudoeste 0 -- -- 82
2020-03-28 08:00:00 5.9 16 Sudoeste 19 Sudoeste 0 -- -- 91
2020-03-28 07:00:00 5.2 15 Sudoeste 18 Sudoeste 0 -- -- 91
2020-03-28 06:00:00 5.2 16 Sudoeste 18 Sudoeste 0 -- -- 92
2020-03-28 05:00:00 5.5 16 Sudoeste 19 Sudoeste 0 -- -- 91
2020-03-28 04:00:00 5.7 15 Sudoeste 17 Sudoeste 0 -- -- 92
2020-03-28 03:00:00 5.8 13 Sudoeste 17 Sudoeste 0 -- -- 92
2020-03-28 02:00:00 5.9 13 Sudoeste 17 Sudoeste 0 -- -- 91
2020-03-28 01:00:00 6.3 14 Sudoeste 16 Sudoeste 0 -- -- 91
2020-03-28 00:00:00 6.6 13 Sudoeste 15 Sudoeste 0 -- -- 89
2020-03-27 23:00:00 7 14 Sudoeste 16 Sudoeste 0 -- -- 87
2020-03-27 22:00:00 7.7 13 Sudoeste 15 Sudoeste 0 -- -- 83
2020-03-27 21:00:00 8.8 11 Sudoeste 14 Sudoeste 0 -- -- 76
2020-03-27 20:00:00 9.6 0 Calma 10 Sur 0 -- -- 71
2020-03-27 19:00:00 11.2 2 Sur 23 Este 0 -- -- 64
2020-03-27 18:00:00 12.3 7 Este 22 Este 0 -- -- 64
2020-03-27 17:00:00 13.4 13 Este 21 Este 0 -- -- 60
2020-03-27 16:00:00 13 11 Este 21 Este 0 -- -- 61
2020-03-27 15:00:00 13.7 14 Este 21 Este 0 -- -- 57
2020-03-27 14:00:00 14.5 12 Este 18 Este 0 -- -- 56
2020-03-27 13:00:00 13.5 14 Este 19 Este 0 -- -- 58
2020-03-27 12:00:00 12.6 8 Nordeste 15 Nordeste 0 -- -- 57
2020-03-27 11:00:00 13.6 7 Norte 11 Norte 0 -- -- 53
2020-03-27 10:00:00 12.9 5 Sudoeste 14 Sudoeste 0 -- -- 61
2020-03-27 09:00:00 8.6 9 Sudoeste 17 Sudoeste 0 -- -- 76
2020-03-27 08:00:00 4.8 12 Sudoeste 17 Sudoeste 0 -- -- 86
2020-03-27 07:00:00 3.5 13 Sudoeste 17 Sudoeste 0 -- -- 86
2020-03-27 06:00:00 3.7 13 Sudoeste 16 Sudoeste 0 -- -- 85
2020-03-27 05:00:00 4 12 Sudoeste 16 Sudoeste 0 -- -- 83
2020-03-27 04:00:00 4.2 13 Sudoeste 15 Sudoeste 0 -- -- 82
2020-03-27 03:00:00 4.7 10 Sudoeste 14 Sudoeste 0 -- -- 81
2020-03-27 02:00:00 5 12 Sudoeste 14 Sudoeste 0 -- -- 78
2020-03-27 01:00:00 5.7 12 Sudoeste 16 Sudoeste 0 -- -- 75
2020-03-27 00:00:00 6.4 11 Oeste 13 Oeste 0 -- -- 73
2020-03-26 23:00:00 6.6 10 Sudoeste 13 Sudoeste 0 -- -- 72
2020-03-26 22:00:00 7.1 8 Sudoeste 15 Norte 0 -- -- 66
2020-03-26 21:00:00 9.2 11 Norte 23 Norte 0 -- -- 56
2020-03-26 20:00:00 9.6 14 Norte 28 Norte 0 -- -- 56
2020-03-26 19:00:00 10.5 17 Nordeste 30 Norte 0 -- -- 56
2020-03-26 18:00:00 11.4 20 Norte 34 Norte 0 -- -- 53
2020-03-26 17:00:00 12.4 18 Norte 37 Norte 0 -- -- 54
2020-03-26 16:00:00 12.4 23 Norte 35 Norte 0 -- -- 51
2020-03-26 15:00:00 13.9 26 Norte 37 Norte 0 -- -- 47
2020-03-26 14:00:00 12.4 28 Norte 40 Norte 0 -- -- 48
2020-03-26 13:00:00 11.4 26 Nordeste 41 Norte 0 -- -- 49
2020-03-26 12:00:00 11.6 25 Nordeste 52 Este 0 -- -- 53
2020-03-26 11:00:00 11.3 27 Nordeste 46 Este 0 -- -- 58
2020-03-26 10:00:00 11.3 38 Nordeste 54 Norte 0 -- -- 55
2020-03-26 09:00:00 11.7 40 Nordeste 52 Nordeste 0 -- -- 61
2020-03-26 08:00:00 11.8 44 Norte 55 Norte 0 -- -- 60
2020-03-26 07:00:00 11.9 40 Nordeste 49 Norte 0 -- -- 62
2020-03-26 06:00:00 12.1 36 Nordeste 46 Norte 0 -- -- 65
2020-03-26 05:00:00 12 30 Nordeste 44 Norte 0 -- -- 68
2020-03-26 04:00:00 12.2 31 Norte 45 Norte 0 -- -- 76
2020-03-26 03:00:00 11.3 22 Norte 43 Norte 0 -- -- 73
2020-03-26 02:00:00 11.2 19 Norte 40 Norte 0 -- -- 71
2020-03-26 01:00:00 11.2 15 Norte 32 Norte 0 -- -- 70
2020-03-26 00:00:00 10.7 4 Oeste 17 Oeste 0 -- -- 68
2020-03-25 23:00:00 10.4 7 Sudoeste 17 Oeste 0 -- -- 67
2020-03-25 22:00:00 10.4 6 Oeste 19 Noroeste 0 -- -- 65
2020-03-25 21:00:00 10.3 7 Noroeste 37 Norte 0 -- -- 68
2020-03-25 20:00:00 10.8 17 Norte 45 Norte 0 -- -- 68
2020-03-25 19:00:00 11 25 Norte 41 Norte 0 -- -- 68
2020-03-25 18:00:00 12.4 22 Norte 35 Norte 0 -- -- 65
2020-03-25 17:00:00 14 24 Norte 35 Norte 0 -- -- 59
2020-03-25 16:00:00 15.8 18 Norte 32 Norte 0 -- -- 55
2020-03-25 15:00:00 16 17 Norte 26 Norte 0 -- -- 59
2020-03-25 14:00:00 14.7 22 Norte 28 Norte 0 -- -- 68
2020-03-25 13:00:00 14.1 15 Nordeste 32 Norte 0 -- -- 75
2020-03-25 12:00:00 14.8 23 Norte 36 Norte 0 -- -- 81
2020-03-25 11:00:00 13.7 10 Norte 30 Norte 0 -- -- 80
2020-03-25 10:00:00 14.1 0 Calma 11 Oeste 0 -- -- 77
2020-03-25 09:00:00 11.1 8 Sudoeste 15 Sudoeste 0 -- -- 96
2020-03-25 08:00:00 8.2 10 Sudoeste 15 Sudoeste 0 -- -- 97
2020-03-25 07:00:00 7.6 13 Sudoeste 16 Sudoeste 0 -- -- 97
2020-03-25 06:00:00 7.6 12 Sudoeste 17 Oeste 0 -- -- 96
2020-03-25 05:00:00 8 14 Sudoeste 16 Sudoeste 0 -- -- 96
2020-03-25 04:00:00 8.4 12 Sudoeste 16 Sudoeste 0 -- -- 96
2020-03-25 03:00:00 8.5 11 Sudoeste 16 Oeste 0 -- -- 96
2020-03-25 02:00:00 8.7 12 Sudoeste 15 Sudoeste 0 -- -- 95
2020-03-25 01:00:00 9.1 12 Sudoeste 14 Oeste 0 -- -- 95
2020-03-25 00:00:00 9.6 12 Sudoeste 15 Sudoeste 0 -- -- 94
2020-03-24 23:00:00 10.1 11 Sudoeste 14 Sudoeste 0 -- -- 94
2020-03-24 22:00:00 10.9 10 Oeste 13 Oeste 0 -- -- 92
2020-03-24 21:00:00 11.7 8 Sudoeste 10 Oeste 0 -- -- 90
2020-03-24 20:00:00 12.6 6 Sudoeste 9 Sudoeste 0 -- -- 86
2020-03-24 19:00:00 14.3 0 Calma 13 Nordeste 0 -- -- 81
2020-03-24 18:00:00 15.8 9 Nordeste 13 Noroeste 0 -- -- 76
2020-03-24 17:00:00 16.7 9 Norte 18 Este 0 -- -- 78
2020-03-24 16:00:00 16 14 Este 21 Este 0 -- -- 80
2020-03-24 15:00:00 16 16 Este 21 Este 0 -- -- 80
2020-03-24 14:00:00 16.6 12 Este 24 Este 0 -- -- 77
2020-03-24 13:00:00 15.3 21 Este 25 Este 0 -- -- 80
2020-03-24 12:00:00 16.4 15 Este 21 Este 0 -- -- 78
2020-03-24 11:00:00 15.3 11 Este 16 Este 0 -- -- 84
2020-03-24 10:00:00 14.8 0 Calma 8 Sudoeste 0 -- -- 90
2020-03-24 09:00:00 12.5 7 Sudoeste 15 Oeste 0 -- -- 98
2020-03-24 08:00:00 9.9 13 Sudoeste 17 Sudoeste 0 -- -- 98
2020-03-24 07:00:00 9.4 14 Sudoeste 17 Sudoeste 0 -- -- 98
2020-03-24 06:00:00 9.1 13 Sudoeste 16 Sudoeste 0 -- -- 98
2020-03-24 05:00:00 9.1 11 Sudoeste 14 Sudoeste 0 -- -- 98
2020-03-24 04:00:00 9.1 12 Sudoeste 14 Sudoeste 0 -- -- 98
2020-03-24 03:00:00 9.4 9 Sudoeste 14 Oeste 0.1 -- -- 97
2020-03-24 02:00:00 9.9 7 Sudoeste 12 Sudoeste 0 -- -- 96
2020-03-24 01:00:00 10.6 6 Sudoeste 10 Sudoeste 0 -- -- 95
2020-03-24 00:00:00 11.5 7 Sudoeste 10 Oeste 0 -- -- 94
2020-03-23 23:00:00 12 3 Sudoeste 9 Sur 0 -- -- 92
2020-03-23 22:00:00 12.7 0 Calma 8 Sudoeste 0 -- -- 90
2020-03-23 21:00:00 12.7 8 Sudoeste 9 Sur 0 -- -- 88
2020-03-23 20:00:00 13.2 7 Sur 16 Sudeste 0 -- -- 86
2020-03-23 19:00:00 13.6 4 Sur 13 Este 0 -- -- 83
2020-03-23 18:00:00 13.9 4 Este 15 Este 0 -- -- 81
2020-03-23 17:00:00 14 13 Este 21 Este 0 -- -- 78
2020-03-23 16:00:00 14.7 14 Este 21 Este 0 -- -- 73
2020-03-23 15:00:00 15.4 13 Este 17 Este 0 -- -- 74
2020-03-23 14:00:00 15.6 10 Este 15 Este 0 -- -- 74
2020-03-23 13:00:00 15.7 13 Este 16 Nordeste 0 -- -- 77
2020-03-23 12:00:00 14.1 4 Nordeste 7 Este 0 -- -- 81
2020-03-23 11:00:00 13.2 0 Calma 7 Oeste 0 -- -- 90
2020-03-23 10:00:00 11.9 6 Sudoeste 10 Oeste 0 -- -- 96
2020-03-23 09:00:00 10.5 8 Sudoeste 11 Oeste 0 -- -- 97
2020-03-23 08:00:00 9.9 10 Sudoeste 12 Oeste 0 -- -- 97
2020-03-23 07:00:00 9.7 9 Sudoeste 13 Sudoeste 0 -- -- 96
2020-03-23 06:00:00 10.1 9 Oeste 11 Sudoeste 0 -- -- 96
2020-03-23 05:00:00 10.2 8 Sudoeste 11 Sudoeste 0 -- -- 96
2020-03-23 04:00:00 10.3 8 Oeste 11 Oeste 0 -- -- 96
2020-03-23 03:00:00 10 9 Oeste 10 Oeste 0 -- -- 95
2020-03-23 02:00:00 10.4 8 Oeste 10 Oeste 0 -- -- 94
2020-03-23 01:00:00 11.1 6 Sudoeste 11 Sudoeste 0 -- -- 91
2020-03-23 00:00:00 12.4 5 Norte 22 Norte 0 -- -- 91
2020-03-22 23:00:00 12.9 17 Norte 24 Norte 0 -- -- 91
2020-03-22 22:00:00 13.1 10 Norte 19 Norte 0 -- -- 91
2020-03-22 21:00:00 13.3 7 Norte 13 Norte 0 -- -- 88
2020-03-22 20:00:00 13.3 5 Oeste 9 Noroeste 0 -- -- 87
2020-03-22 19:00:00 13.8 2 Noroeste 8 Norte 0 -- -- 85
2020-03-22 18:00:00 14.3 3 Norte 13 Norte 0 -- -- 81
2020-03-22 17:00:00 15.4 10 Norte 15 Norte 0 -- -- 81
2020-03-22 16:00:00 14.3 10 Nordeste 20 Norte 0 -- -- 82
2020-03-22 15:00:00 14.6 12 Nordeste 23 Norte 0 -- -- 78
2020-03-22 14:00:00 15.8 17 Norte 22 Norte 0 -- -- 73
2020-03-22 13:00:00 16.1 3 Nordeste 14 Este 0 -- -- 71
2020-03-22 12:00:00 16.1 11 Este 19 Este 0 -- -- 70
2020-03-22 11:00:00 16.3 11 Este 15 Este 0 -- -- 70
2020-03-22 10:00:00 14.2 3 Sur 10 Sudoeste 0 -- -- 81
2020-03-22 09:00:00 10.8 9 Sudoeste 14 Sudoeste 0 -- -- 94
2020-03-22 08:00:00 8.4 11 Sudoeste 14 Sudoeste 0 -- -- 94
2020-03-22 07:00:00 8.3 10 Sudoeste 14 Sudoeste 0 -- -- 94
2020-03-22 06:00:00 8.7 10 Sudoeste 13 Sudoeste 0 -- -- 93
2020-03-22 05:00:00 9.4 9 Sudoeste 12 Sudoeste 0 -- -- 92
2020-03-22 04:00:00 10 7 Oeste 9 Oeste 0 -- -- 91
2020-03-22 03:00:00 12.2 5 Norte 18 Norte 0 -- -- 92
2020-03-22 02:00:00 13.1 6 Norte 20 Norte 0 -- -- 84
2020-03-22 01:00:00 13.8 4 Noroeste 17 Sudoeste 0 -- -- 57
2020-03-22 00:00:00 13.8 13 Sudoeste 19 Sudoeste 0 -- -- 56
2020-03-21 23:00:00 12.1 10 Sudoeste 29 Sudoeste 0 -- -- 69
2020-03-21 22:00:00 11.7 11 Sudoeste 14 Oeste 0 -- -- 79
2020-03-21 21:00:00 12.8 8 Oeste 11 Sudoeste 0 -- -- 73
2020-03-21 20:00:00 14.3 6 Sudoeste 26 Sudeste 0 -- -- 68
2020-03-21 19:00:00 15.5 21 Sudeste 30 Sudeste 0 -- -- 63
2020-03-21 18:00:00 17 19 Sudeste 32 Sur 0 -- -- 55
2020-03-21 17:00:00 17.9 22 Sudeste 32 Sudeste 0 -- -- 50
2020-03-21 16:00:00 18 24 Sudeste 34 Sur 0 -- -- 51
2020-03-21 15:00:00 18.4 15 Este 30 Este 0 -- -- 51
2020-03-21 14:00:00 17 20 Este 27 Este 0 -- -- 57
2020-03-21 13:00:00 21.6 14 Oeste 28 Oeste 0 -- -- 40
2020-03-21 12:00:00 20.8 14 Sudoeste 30 Oeste 0 -- -- 42
2020-03-21 11:00:00 18.6 15 Sudoeste 30 Oeste 0 -- -- 45
2020-03-21 10:00:00 16.8 18 Sudoeste 42 Sudoeste 0 -- -- 49
2020-03-21 09:00:00 14.9 23 Sudoeste 43 Sudoeste 0 -- -- 52
2020-03-21 08:00:00 13.7 19 Sudoeste 33 Sudoeste 0 -- -- 53
2020-03-21 07:00:00 13.8 18 Sudoeste 39 Sudoeste 0 -- -- 53
2020-03-21 06:00:00 14.3 27 Sudoeste 51 Oeste 0 -- -- 54
2020-03-21 05:00:00 14.3 27 Sudoeste 51 Sudoeste 0 -- -- 56
2020-03-21 04:00:00 14.8 24 Sudoeste 51 Oeste 0 -- -- 55
2020-03-21 03:00:00 15.1 19 Sudoeste 40 Sur 0 -- -- 55
2020-03-21 02:00:00 15.1 15 Sudoeste 36 Sudoeste 0 -- -- 55
2020-03-21 01:00:00 15.4 17 Sudoeste 34 Sudoeste 0 -- -- 55
2020-03-21 00:00:00 15.5 14 Sudoeste 30 Sudoeste 0 -- -- 56
2020-03-20 23:00:00 15.2 12 Sudoeste 26 Sudoeste 0 -- -- 56
2020-03-20 22:00:00 14.9 13 Sudoeste 21 Sur 0 -- -- 56
2020-03-20 21:00:00 14.8 10 Sudoeste 19 Sudoeste 0 -- -- 55
2020-03-20 20:00:00 15.4 7 Sudoeste 12 Sudoeste 0 -- -- 52
2020-03-20 19:00:00 17.3 9 Sudoeste 23 Sudoeste 0 -- -- 46
2020-03-20 18:00:00 19.2 15 Oeste 31 Oeste 0 -- -- 42
2020-03-20 17:00:00 19.9 14 Oeste 29 Sudoeste 0 -- -- 40
2020-03-20 16:00:00 20.5 20 Oeste 39 Oeste 0 -- -- 39
2020-03-20 15:00:00 21.5 18 Oeste 31 Oeste 0 -- -- 39
2020-03-20 14:00:00 21.3 14 Sudoeste 32 Oeste 0 -- -- 41
2020-03-20 13:00:00 20 23 Sudoeste 39 Sudoeste 0 -- -- 41
2020-03-20 12:00:00 17.4 4 Norte 14 Oeste 0 -- -- 47
2020-03-20 11:00:00 16.5 8 Este 29 Sudoeste 0 -- -- 48
2020-03-20 10:00:00 16.2 21 Sudoeste 33 Sudoeste 0 -- -- 44
2020-03-20 09:00:00 16.4 14 Sudoeste 39 Sudoeste 0 -- -- 45
2020-03-20 08:00:00 14.7 19 Sudoeste 32 Sudoeste 0 -- -- 46
2020-03-20 07:00:00 14.2 18 Sudoeste 26 Sudoeste 0 -- -- 46
2020-03-20 06:00:00 14.8 16 Sudoeste 38 Sudoeste 0 -- -- 45
2020-03-20 05:00:00 15.2 20 Sudoeste 34 Sudoeste 0 -- -- 45
2020-03-20 04:00:00 15.1 14 Sudoeste 33 Sudoeste 0 -- -- 48
2020-03-20 03:00:00 15.5 15 Sudoeste 41 Sudoeste 0 -- -- 49
2020-03-20 02:00:00 15.6 23 Sudoeste 35 Sudoeste 0 -- -- 51
2020-03-20 01:00:00 14.7 13 Sudoeste 19 Sudoeste 0 -- -- 56
2020-03-20 00:00:00 14.8 7 Sudoeste 16 Sudoeste 0 -- -- 55
2020-03-19 23:00:00 14.3 5 Sur 11 Oeste 0 -- -- 52
2020-03-19 22:00:00 14.8 6 Sudoeste 11 Sur 0 -- -- 52
2020-03-19 21:00:00 15.3 10 Sur 14 Sur 0 -- -- 51
2020-03-19 20:00:00 16 7 Sudoeste 12 Sudoeste 0 -- -- 50
2020-03-19 19:00:00 17.1 10 Sudoeste 18 Sudoeste 0 -- -- 48
2020-03-19 18:00:00 18.2 12 Sudoeste 28 Sudoeste 0 -- -- 49
2020-03-19 17:00:00 17.5 12 Sudoeste 25 Sudoeste 0 -- -- 57
2020-03-19 16:00:00 14.2 9 Nordeste 20 Este 0 -- -- 85
2020-03-19 15:00:00 16.3 6 Este 19 Este 0 -- -- 83
2020-03-19 14:00:00 15.5 8 Este 24 Este 0 -- -- 85
2020-03-19 13:00:00 15.2 6 Este 22 Este 0 -- -- 93
2020-03-19 12:00:00 13.9 9 Nordeste 21 Este 0 -- -- 99
2020-03-19 11:00:00 12.4 10 Este 15 Este 0 -- -- 99
2020-03-19 10:00:00 12.4 2 Nordeste 11 Norte 0 -- -- 99
2020-03-19 09:00:00 11.8 3 Norte 12 Norte 0.1 -- -- 99
2020-03-19 08:00:00 11.5 0 Calma 8 Norte 0 -- -- 99
2020-03-19 07:00:00 11.2 2 Norte 7 Norte 0 -- -- 98
2020-03-19 06:00:00 11.2 0 Calma 13 Norte 0 -- -- 98
2020-03-19 05:00:00 11.5 7 Norte 13 Norte 0 -- -- 98
2020-03-19 04:00:00 12 7 Nordeste 10 Nordeste 0 -- -- 98
2020-03-19 03:00:00 11.9 4 Este 8 Este 0 -- -- 98
2020-03-19 02:00:00 11.9 3 Este 8 Este 0 -- -- 97
2020-03-19 01:00:00 11.5 0 Calma 9 Oeste 0 -- -- 96
2020-03-19 00:00:00 11.2 5 Oeste 8 Noroeste 0 -- -- 95
2020-03-18 23:00:00 11.5 6 Oeste 9 Oeste 0 -- -- 94
2020-03-18 22:00:00 11.9 6 Oeste 8 Oeste 0 -- -- 91
2020-03-18 21:00:00 12.3 3 Oeste 6 Oeste 0 -- -- 90
2020-03-18 20:00:00 12.6 3 Oeste 5 Este 0 -- -- 88
2020-03-18 19:00:00 13.2 3 Nordeste 8 Nordeste 0 -- -- 87
2020-03-18 18:00:00 14.1 0 Calma 8 Norte 0 -- -- 84
2020-03-18 17:00:00 15 2 Nordeste 10 Este 0 -- -- 83
2020-03-18 16:00:00 15.8 5 Nordeste 9 Norte 0 -- -- 81
2020-03-18 15:00:00 15.4 4 Nordeste 11 Norte 0 -- -- 83
2020-03-18 14:00:00 15 10 Norte 13 Norte 0 -- -- 84
2020-03-18 13:00:00 14.1 4 Norte 11 Norte 0 -- -- 87
2020-03-18 12:00:00 13.9 7 Nordeste 17 Este 0 -- -- 92
2020-03-18 11:00:00 13 9 Este 13 Este 0 -- -- 98
2020-03-18 10:00:00 12.2 0 Calma 7 Sudoeste 0 -- -- 99
2020-03-18 09:00:00 10.6 6 Sudoeste 9 Sudoeste 0 -- -- 99
2020-03-18 08:00:00 9.5 8 Sudoeste 13 Sudoeste 0 -- -- 99
2020-03-18 07:00:00 9.3 12 Sudoeste 15 Sudoeste 0 -- -- 99
2020-03-18 06:00:00 9.3 14 Sudoeste 16 Sudoeste 0 -- -- 99
2020-03-18 05:00:00 9.1 9 Oeste 11 Sudoeste 0 -- -- 99
2020-03-18 04:00:00 9.4 7 Sudoeste 9 Oeste 0 -- -- 98
2020-03-18 03:00:00 9.5 8 Oeste 12 Oeste 0 -- -- 98
2020-03-18 02:00:00 9.8 9 Sudoeste 11 Sudoeste 0 -- -- 97
2020-03-18 01:00:00 10.5 5 Sudoeste 11 Oeste 0 -- -- 96
2020-03-18 00:00:00 10.8 6 Sudoeste 8 Oeste 0 -- -- 95
2020-03-17 23:00:00 11.5 0 Calma 3 Sudoeste 0 -- -- 94
2020-03-17 22:00:00 12.1 0 Calma -- -- 0 -- -- 94
2020-03-17 21:00:00 12.2 0 Calma 5 Oeste 0 -- -- 94
2020-03-17 20:00:00 12.2 5 Este 9 Este 0 -- -- 93
2020-03-17 19:00:00 12.3 0 Calma 11 Este 0 -- -- 92
2020-03-17 18:00:00 12.6 3 Este 13 Este 0 -- -- 91
2020-03-17 17:00:00 13 7 Este 12 Este 0 -- -- 90
2020-03-17 16:00:00 13.5 3 Este 8 Este 0 -- -- 91
2020-03-17 15:00:00 13.6 3 Nordeste 5 Nordeste 0 -- -- 94
2020-03-17 14:00:00 13.3 0 Calma 6 Nordeste 0 -- -- 96
2020-03-17 13:00:00 12.6 0 Calma 6 Sudoeste 0 -- -- 98
2020-03-17 12:00:00 12.5 0 Calma 5 Norte 0 -- -- 98
2020-03-17 11:00:00 12.2 0 Calma 12 Norte 0 -- -- 98
2020-03-17 10:00:00 11.8 3 Norte 8 Norte 0.1 -- -- 98
2020-03-17 09:00:00 11.7 0 Calma 8 Sudoeste 0 -- -- 98
2020-03-17 08:00:00 11.1 5 Sudoeste 8 Sudoeste 0 -- -- 98
2020-03-17 07:00:00 11.2 6 Sudoeste 8 Sudoeste 0 -- -- 98
2020-03-17 06:00:00 11.6 3 Sur 14 Este 0.1 -- -- 98
2020-03-17 05:00:00 11.5 9 Nordeste 21 Este 0.9 -- -- 97
2020-03-17 04:00:00 11.8 5 Nordeste 22 Este 0.1 -- -- 96
2020-03-17 03:00:00 11.8 10 Nordeste 19 Nordeste 0 -- -- 95
2020-03-17 02:00:00 11.8 10 Nordeste 18 Nordeste 0 -- -- 95
2020-03-17 01:00:00 11.8 16 Nordeste 26 Nordeste 0 -- -- 95
2020-03-17 00:00:00 11.5 19 Nordeste 25 Nordeste 0 -- -- 96
2020-03-16 23:00:00 11.4 20 Nordeste 30 Nordeste 0 -- -- 96
2020-03-16 22:00:00 11.3 23 Nordeste 36 Norte 0 -- -- 97
2020-03-16 21:00:00 11 31 Nordeste 38 Norte 0.3 -- -- 98
2020-03-16 20:00:00 11 21 Nordeste 35 Este 0.2 -- -- 98
2020-03-16 19:00:00 10.6 22 Nordeste 37 Este 0.1 -- -- 98
2020-03-16 18:00:00 10.5 18 Nordeste 32 Este 0 -- -- 97
2020-03-16 17:00:00 10.7 8 Norte 35 Nordeste 0 -- -- 97
2020-03-16 16:00:00 11.1 12 Norte 18 Norte 0 -- -- 98
2020-03-16 15:00:00 11.1 10 Nordeste 14 Nordeste 0.3 -- -- 99
2020-03-16 14:00:00 11 13 Nordeste 23 Este 1.4 -- -- 99
2020-03-16 13:00:00 10.7 13 Nordeste 20 Nordeste 1.9 -- -- 99
2020-03-16 12:00:00 10.8 15 Este 27 Este 2.5 -- -- 99
2020-03-16 11:00:00 10.7 22 Nordeste 49 Norte 1.2 -- -- 99
2020-03-16 10:00:00 9.9 33 Nordeste 59 Norte 3.3 -- -- 99
2020-03-16 09:00:00 10.2 43 Nordeste 62 Norte 4.6 -- -- 99
2020-03-16 08:00:00 9.9 41 Norte 57 Norte 2 -- -- 98
2020-03-16 07:00:00 9.4 26 Norte 50 Norte 3.8 -- -- 98
2020-03-16 06:00:00 9.4 39 Norte 55 Norte 1.4 -- -- 98
2020-03-16 05:00:00 8.9 21 Norte 53 Norte 1.7 -- -- 98
2020-03-16 04:00:00 9.4 28 Norte 51 Norte 3.1 -- -- 98
2020-03-16 03:00:00 8.9 8 Noroeste 47 Norte 3.6 -- -- 97
2020-03-16 02:00:00 9.6 30 Norte 54 Norte 0.1 -- -- 97
2020-03-16 01:00:00 9.8 40 Norte 54 Norte 1.9 -- -- 97
2020-03-16 00:00:00 9.6 10 Noroeste 43 Norte 2.7 -- -- 97
2020-03-15 23:00:00 10 7 Noroeste 36 Norte 1 -- -- 96
2020-03-15 22:00:00 10.8 3 Noroeste 14 Noroeste 0.1 -- -- 93
2020-03-15 21:00:00 10.9 2 Noroeste 33 Noroeste 2.2 -- -- 91
2020-03-15 20:00:00 11.4 11 Norte 28 Norte 2 -- -- 90
2020-03-15 19:00:00 12.7 12 Norte 19 Norte 0 -- -- 85
2020-03-15 18:00:00 13.3 6 Norte 18 Norte 0 -- -- 83
2020-03-15 17:00:00 13.6 12 Norte 24 Norte 0 -- -- 82
2020-03-15 16:00:00 13.4 19 Norte 26 Norte 0 -- -- 81
2020-03-15 15:00:00 14.9 18 Norte 38 Norte 0 -- -- 75
2020-03-15 14:00:00 15.7 24 Norte 41 Norte 0 -- -- 74
2020-03-15 13:00:00 15.8 19 Norte 37 Norte 0 -- -- 73
2020-03-15 12:00:00 18 20 Norte 40 Oeste 0 -- -- 65
2020-03-15 11:00:00 20.3 25 Sudoeste 53 Sudoeste 0 -- -- 41
2020-03-15 10:00:00 18.5 29 Sudoeste 51 Oeste 0 -- -- 43
2020-03-15 09:00:00 16.5 33 Sudoeste 51 Sudoeste 0 -- -- 45
2020-03-15 08:00:00 14.2 29 Sudoeste 56 Sudoeste 0 -- -- 49
2020-03-15 07:00:00 11.8 19 Sudoeste 39 Sudoeste 0 -- -- 60
2020-03-15 06:00:00 6.9 4 Oeste 13 Sudoeste 0 -- -- 88
2020-03-15 05:00:00 5.7 7 Sudoeste 16 Sudoeste 0 -- -- 91
2020-03-15 04:00:00 6.3 11 Oeste 16 Sudoeste 0 -- -- 93
2020-03-15 03:00:00 6.3 12 Sudoeste 16 Sudoeste 0 -- -- 93
2020-03-15 02:00:00 6.5 10 Sudoeste 16 Sudoeste 0 -- -- 93
2020-03-15 01:00:00 6.7 14 Sudoeste 17 Sudoeste 0 -- -- 93
2020-03-15 00:00:00 6.8 13 Sudoeste 15 Sudoeste 0 -- -- 92
2020-03-14 23:00:00 7.2 12 Sudoeste 14 Sudoeste 0 -- -- 91
2020-03-14 22:00:00 7.9 10 Sudoeste 13 Oeste 0 -- -- 87
2020-03-14 21:00:00 9 9 Sudoeste 11 Sudoeste 0 -- -- 80
2020-03-14 20:00:00 10.4 0 Calma 12 Este 0 -- -- 72
2020-03-14 19:00:00 11.9 2 Sudeste 15 Sudeste 0 -- -- 66
2020-03-14 18:00:00 14.2 7 Sudeste 17 Este 0 -- -- 60
2020-03-14 17:00:00 14.2 9 Este 20 Este 0 -- -- 58
2020-03-14 16:00:00 14.2 12 Este 17 Este 0 -- -- 58
2020-03-14 15:00:00 14.7 10 Este 18 Este 0 -- -- 57
2020-03-14 14:00:00 14.6 8 Este 13 Este 0 -- -- 60
2020-03-14 13:00:00 13.5 6 Este 12 Este 0 -- -- 61
2020-03-14 12:00:00 13.2 6 Este 10 Este 0 -- -- 64
2020-03-14 11:00:00 12.6 5 Norte 9 Sudoeste 0 -- -- 68
2020-03-14 10:00:00 12 6 Sudoeste 13 Sudoeste 0 -- -- 80
2020-03-14 09:00:00 8 12 Sudoeste 14 Sudoeste 0 -- -- 97
2020-03-14 08:00:00 5 12 Sudoeste 16 Sudoeste 0 -- -- 97
2020-03-14 07:00:00 4.9 13 Sudoeste 16 Sudoeste 0 -- -- 97
2020-03-14 06:00:00 5.2 12 Sudoeste 14 Sudoeste 0 -- -- 96
2020-03-14 05:00:00 5.3 12 Sudoeste 15 Sudoeste 0 -- -- 95
2020-03-14 04:00:00 5.5 12 Sudoeste 14 Sudoeste 0 -- -- 94
2020-03-14 03:00:00 5.8 12 Sudoeste 15 Sudoeste 0 -- -- 94
2020-03-14 02:00:00 6.3 11 Sudoeste 14 Sudoeste 0 -- -- 92
2020-03-14 01:00:00 7.1 9 Sudoeste 13 Oeste 0 -- -- 91
2020-03-14 00:00:00 7.4 9 Sudoeste 12 Sudoeste 0 -- -- 91
2020-03-13 23:00:00 7.4 9 Sudoeste 13 Sudoeste 0 -- -- 89
2020-03-13 22:00:00 8.3 8 Oeste 10 Oeste 0 -- -- 86
2020-03-13 21:00:00 9.1 0 Calma 10 Sudoeste 0 -- -- 77
2020-03-13 20:00:00 10.5 2 Sudoeste 10 Sudoeste 0 -- -- 71
2020-03-13 19:00:00 11.3 4 Norte 12 Norte 0 -- -- 69
2020-03-13 18:00:00 13.1 6 Norte 12 Norte 0 -- -- 65
2020-03-13 17:00:00 13 5 Nordeste 14 Nordeste 0 -- -- 66
2020-03-13 16:00:00 14.1 8 Nordeste 17 Este 0 -- -- 64
2020-03-13 15:00:00 13.1 10 Este 20 Este 0 -- -- 65
2020-03-13 14:00:00 13.1 15 Este 26 Este 0 -- -- 66
2020-03-13 13:00:00 12.7 17 Este 26 Este 0 -- -- 70
2020-03-13 12:00:00 11.9 13 Este 26 Este 0 -- -- 75
2020-03-13 11:00:00 11 14 Este 23 Este 0 -- -- 87
2020-03-13 10:00:00 10 10 Sudeste 19 Sudeste 0 -- -- 96
2020-03-13 09:00:00 9.9 12 Sudeste 18 Sudeste 0 -- -- 98
2020-03-13 08:00:00 9.7 4 Sur 14 Sur 0.2 -- -- 98
2020-03-13 07:00:00 9.9 0 Calma 6 Sudoeste 0.8 -- -- 97
2020-03-13 06:00:00 9.8 0 Calma 9 Sudoeste 1.2 -- -- 96
2020-03-13 05:00:00 10.1 6 Sudoeste 15 Sudoeste 0.2 -- -- 95
2020-03-13 04:00:00 10.6 7 Sudoeste 19 Sudeste 0 -- -- 94
2020-03-13 03:00:00 10.9 7 Sudeste 22 Este 0 -- -- 91
2020-03-13 02:00:00 11.2 9 Este 26 Este 0 -- -- 91
2020-03-13 01:00:00 11 5 Este 30 Este 0.1 -- -- 98
2020-03-13 00:00:00 11.4 19 Este 28 Este 0.4 -- -- 98
2020-03-12 23:00:00 11.1 8 Nordeste 22 Nordeste 0.6 -- -- 98
2020-03-12 22:00:00 11.1 3 Norte 14 Norte 0.5 -- -- 98
2020-03-12 21:00:00 11.6 8 Este 27 Este 0.1 -- -- 98
2020-03-12 20:00:00 11.9 24 Este 37 Este 0.3 -- -- 97
2020-03-12 19:00:00 12.7 4 Norte 11 Este 0.2 -- -- 94
2020-03-12 18:00:00 13.3 0 Calma 10 Este 0 -- -- 93
2020-03-12 17:00:00 13.5 0 Calma 13 Este 0 -- -- 91
2020-03-12 16:00:00 13.9 3 Este 11 Este 0 -- -- 87
2020-03-12 15:00:00 14.5 3 Este 12 Este 0 -- -- 84
2020-03-12 14:00:00 14.5 6 Este 10 Este 0 -- -- 85
2020-03-12 13:00:00 14.5 0 Calma 7 Sudeste 0 -- -- 89
2020-03-12 12:00:00 14.1 0 Calma -- -- 0 -- -- 93
2020-03-12 11:00:00 13.7 0 Calma 10 Sudoeste 0 -- -- 97
2020-03-12 10:00:00 12.8 6 Sudoeste 10 Sudoeste 0 -- -- 98
2020-03-12 09:00:00 12 0 Calma 7 Sudoeste 0 -- -- 98
2020-03-12 08:00:00 11.7 0 Calma 10 Sudoeste 0 -- -- 98
2020-03-12 07:00:00 11.4 0 Calma 8 Sudoeste 0 -- -- 98
2020-03-12 06:00:00 11.3 2 Sudoeste 8 Sudoeste 0 -- -- 98
2020-03-12 05:00:00 11 0 Calma 8 Oeste 0 -- -- 98
2020-03-12 04:00:00 11.1 0 Calma 6 Oeste 0 -- -- 99
2020-03-12 03:00:00 10.7 2 Oeste 13 Noroeste 0 -- -- 99
2020-03-12 02:00:00 10 5 Oeste 12 Noroeste 0 -- -- 98
2020-03-12 01:00:00 9.8 4 Oeste 8 Oeste 0 -- -- 98
2020-03-12 00:00:00 10.3 7 Oeste 9 Oeste 0 -- -- 97
2020-03-11 23:00:00 10.5 7 Sudoeste 9 Oeste 0 -- -- 96
2020-03-11 22:00:00 11 6 Oeste 10 Oeste 0 -- -- 95
2020-03-11 21:00:00 11.8 3 Oeste 9 Noroeste 0 -- -- 94
2020-03-11 20:00:00 12.3 0 Calma 8 Norte 0 -- -- 91
2020-03-11 19:00:00 13.2 4 Nordeste 9 Nordeste 0 -- -- 86
2020-03-11 18:00:00 15.3 5 Nordeste 10 Nordeste 0 -- -- 78
2020-03-11 17:00:00 15.8 9 Este 15 Nordeste 0 -- -- 76
2020-03-11 16:00:00 15.5 13 Este 19 Este 0 -- -- 75
2020-03-11 15:00:00 15.8 16 Este 22 Este 0 -- -- 73
2020-03-11 14:00:00 15.6 15 Este 23 Este 0 -- -- 73
2020-03-11 13:00:00 14.9 15 Este 23 Este 0 -- -- 76
2020-03-11 12:00:00 13.4 14 Este 18 Este 0 -- -- 83
2020-03-11 11:00:00 12.5 5 Nordeste 9 Nordeste 0 -- -- 86
2020-03-11 10:00:00 12.7 7 Sudoeste 15 Sudoeste 0 -- -- 95
2020-03-11 09:00:00 9.6 13 Sudoeste 17 Sudoeste 0 -- -- 99
2020-03-11 08:00:00 7.2 14 Sudoeste 17 Sudoeste 0 -- -- 99
2020-03-11 07:00:00 7.1 13 Sudoeste 17 Sudoeste 0 -- -- 99
2020-03-11 06:00:00 7.2 13 Sudoeste 16 Sudoeste 0 -- -- 99
2020-03-11 05:00:00 7.5 12 Sudoeste 15 Sudoeste 0 -- -- 99
2020-03-11 04:00:00 7.8 12 Sudoeste 14 Sudoeste 0 -- -- 99
2020-03-11 03:00:00 8 13 Sudoeste 15 Sudoeste 0 -- -- 98
2020-03-11 02:00:00 8 12 Sudoeste 14 Sudoeste 0 -- -- 98
2020-03-11 01:00:00 8.2 11 Sudoeste 14 Oeste 0 -- -- 97
2020-03-11 00:00:00 8.7 10 Sudoeste 12 Sudoeste 0 -- -- 96